Latest Coastal Weather Observations for Moorabbin Airport

IDV60701

Issued at 5:02 am EST Tuesday 25 July 2017 (issued every 10 minutes, with the page automatically refreshed every 10 minutes)

About coastal observations | Map of coastal stations | Coastal observations for VIC | Marine services | Other Formats
Station Details ID: 086077 Name: MOORABBIN AIRPORT Lat: -37.98 Lon: 145.10 Height: 12.1 m
Data from the previous 72 hours. | See also: Recent months at Moorabbin Airport
Date/Time
EST
Temp
°C
Wind Pressure Rain since
9am
mm
Weather Cloud Vis
km
Sea
Height
m
Swell
Dir  Spd
kts
Gust
kts
hPa Trend Height
m
Period
s
Dir
25/05:00am 10.4 N 14 19 1016.4 - 0.0 - - 10 - - - -
25/04:30am 10.4 N 15 21 1016.3 - 0.0 - - 10 - - - -
25/04:00am 10.4 N 15 20 1016.7 - 0.0 - - 10 - - - -
25/03:30am 10.2 N 13 17 1017.0 - 0.0 - - 10 - - - -
25/03:00am 10.8 N 13 16 1017.4 - 0.0 - - 10 - - - -
25/02:30am 11.0 N 13 17 1017.8 - 0.0 - Partly cloudy 10 - - - -
25/02:00am 11.4 N 11 18 1018.0 - 0.0 - Partly cloudy 10 - - - -
25/01:30am 11.0 NNW 12 16 1018.0 - 0.0 - Partly cloudy 10 - - - -
25/01:00am 11.1 N 14 20 1017.9 - 0.0 - Partly cloudy 10 - - - -
25/12:30am 11.3 NNW 11 16 1018.1 - 0.0 - Partly cloudy 10 - - - -
25/12:00am 11.2 N 12 17 1018.4 - 0.0 - Mostly cloudy 10 - - - -
 
Date/Time
EST
Temp
°C
Wind Pressure Rain since
9am
mm
Weather Cloud Vis
km
Sea
Height
m
Swell
Dir  Spd
kts
Gust
kts
hPa Trend Height
m
Period
s
Dir
24/11:30pm 10.8 N 11 16 1018.5 - 0.0 - Partly cloudy 10 - - - -
24/11:00pm 11.0 NNW 11 14 1018.8 - 0.0 - Partly cloudy 10 - - - -
24/10:30pm 11.3 NNW 11 16 1019.1 - 0.0 - Partly cloudy 10 - - - -
24/10:00pm 11.3 N 10 14 1018.9 - 0.0 - Partly cloudy 10 - - - -
24/09:30pm 10.9 N 10 12 1019.0 - 0.0 - Partly cloudy 10 - - - -
24/09:00pm 10.8 N 9 13 1019.0 - 0.0 - Mostly clear 10 - - - -
24/08:30pm 11.1 NNW 11 14 1018.9 - 0.0 - Partly cloudy 10 - - - -
24/08:00pm 11.1 N 11 15 1018.9 - 0.0 - Partly cloudy 10 - - - -
24/07:30pm 11.3 NNW 12 17 1018.8 - 0.0 - Partly cloudy 10 - - - -
24/07:00pm 11.8 NNW 11 15 1018.6 - 0.0 - Partly cloudy 10 - - - -
24/06:30pm 12.1 N 11 15 1018.5 - 0.0 - Partly cloudy 10 - - - -
24/06:00pm 13.0 W 5 7 1018.4 - 0.0 - Cloudy 10 - - - -
24/05:30pm 12.9 W 4 6 1018.2 - 0.0 - Partly cloudy 10 - - - -
24/05:00pm 13.4 SW 4 6 1017.9 - 0.0 - Partly cloudy 10 - - - -
24/04:30pm 14.1 W 5 7 1018.0 - 0.0 - Partly cloudy 10 - - - -
24/04:00pm 14.8 WNW 7 9 1017.9 - 0.0 - Partly cloudy 10 - - - -
24/03:30pm 14.0 WNW 9 15 1018.1 - 0.0 - Partly cloudy 10 - - - -
24/03:00pm 15.2 NW 11 16 1018.1 - 0.0 - Cloudy 10 - - - -
24/02:30pm 15.2 NW 11 17 1018.1 - 0.0 - Partly cloudy 10 - - - -
24/02:00pm 14.5 NW 8 13 1018.4 - 0.0 - Partly cloudy 10 - - - -
24/01:30pm 13.4 NW 7 11 1018.9 - 0.0 - Partly cloudy 10 - - - -
24/01:00pm 13.5 WNW 10 15 1019.2 - 0.0 - Cloudy 10 - - - -
24/12:30pm 13.5 WNW 12 16 1019.2 - 0.0 - Partly cloudy 10 - - - -
24/12:00pm 13.8 NW 12 17 1019.7 - 0.0 - Mostly clear 10 - - - -
24/11:30am 13.5 WNW 11 15 1019.9 - 0.0 - Partly cloudy 10 - - - -
24/11:00am 13.0 NW 9 13 1020.4 - 0.0 - Partly cloudy 10 - - - -
24/10:30am 12.1 WNW 9 13 1020.4 - 0.0 - Cloudy 10 - - - -
24/10:00am 12.0 NW 9 11 1020.3 - 0.0 - - 10 - - - -
24/09:30am 10.6 N 6 7 1020.1 - 0.0 - - 10 - - - -
24/09:00am 9.8 N 7 9 1019.8 - 1.8 - - 10 - - - -
24/08:30am 8.7 N 7 9 1019.3 - 1.8 - - 10 - - - -
24/08:00am 7.3 N 5 6 1019.1 - 1.8 - Partly cloudy 10 - - - -
24/07:30am 7.3 N 5 7 1018.9 - 1.8 - Partly cloudy 10 - - - -
24/07:00am 7.7 NNW 5 6 1018.6 - 1.8 - Partly cloudy 10 - - - -
24/06:30am 7.8 NNW 5 7 1018.4 - 1.8 - Partly cloudy 10 - - - -
24/06:00am 8.4 NW 6 8 1018.3 - 1.8 - Partly cloudy 10 - - - -
24/05:30am 7.9 NNW 4 6 1018.0 - 1.8 - Partly cloudy 10 - - - -
24/05:00am 8.3 NW 3 4 1017.7 - 1.8 - Cloudy 10 - - - -
24/04:30am 8.1 NNW 6 7 1017.6 - 1.8 - Partly cloudy 10 - - - -
24/04:24am 8.1 NNW 6 7 1017.5 - 1.8 - Partly cloudy 10 - - - -
24/04:00am 7.9 NNW 5 8 1017.3 - 1.8 - Partly cloudy 10 - - - -
24/03:51am 7.9 NNW 4 5 1017.2 - 1.8 - Partly cloudy 10 - - - -
24/03:30am 8.3 NNW 4 6 1017.3 - 1.8 - Cloudy 10 - - - -
24/03:01am 8.5 NW 6 8 1017.1 - 1.8 - Partly cloudy 10 - - - -
24/03:00am 8.5 NW 6 8 1017.1 - 1.8 - Partly cloudy 10 - - - -
24/02:30am 8.4 NW 5 8 1016.8 - 1.8 - - 10 - - - -
24/02:05am 8.6 NW 8 11 1016.8 - 1.8 - Partly cloudy 10 - - - -
24/02:00am 8.5 NW 7 9 1016.7 - 1.8 - Partly cloudy 10 - - - -
24/01:34am 8.5 NNW 5 6 1016.7 - 1.8 - Partly cloudy 10 - - - -
24/01:30am 8.6 NNW 6 7 1016.8 - 1.8 - Partly cloudy 10 - - - -
24/01:00am 9.0 NW 6 9 1016.4 - 1.8 - - 10 - - - -
24/12:30am 9.0 NW 7 10 1016.4 - 1.8 - Partly cloudy 10 - - - -
24/12:00am 9.5 NW 5 8 1016.3 - 1.8 - - 10 - - - -
 
Date/Time
EST
Temp
°C
Wind Pressure Rain since
9am
mm
Weather Cloud Vis
km
Sea
Height
m
Swell
Dir  Spd
kts
Gust
kts
hPa Trend Height
m
Period
s
Dir
23/11:30pm 9.5 NW 5 8 1016.1 - 1.8 - - 10 - - - -
23/11:00pm 9.8 NW 6 7 1016.2 - 1.8 - Partly cloudy 10 - - - -
23/10:30pm 10.3 NW 6 9 1016.0 - 1.8 - Partly cloudy 10 - - - -
23/10:00pm 10.3 NNW 7 9 1015.8 - 1.8 - Partly cloudy 10 - - - -
23/09:30pm 10.9 WNW 8 11 1015.4 - 1.8 - Partly cloudy 10 - - - -
23/09:00pm 11.1 NW 7 10 1015.2 - 1.8 - Cloudy 10 - - - -
23/08:30pm 11.1 NW 9 13 1014.9 - 1.8 - Partly cloudy 10 - - - -
23/08:00pm 11.3 NW 7 10 1014.6 - 1.8 - Cloudy 10 - - - -
23/07:30pm 11.1 NW 7 9 1014.2 - 1.8 - Cloudy 10 - - - -
23/07:00pm 11.2 NW 7 9 1013.9 - 1.8 - Partly cloudy 10 - - - -
23/06:30pm 11.5 NW 7 8 1013.4 - 1.8 - Partly cloudy 10 - - - -
23/06:00pm 11.1 NW 6 8 1013.1 - 1.8 - Cloudy 10 - - - -
23/05:30pm 11.4 NW 7 9 1012.6 - 1.8 - - 10 - - - -
23/05:00pm 12.2 WNW 9 13 1012.4 - 1.8 - Partly cloudy 10 - - - -
23/04:30pm 11.5 NW 6 8 1011.9 - 1.8 - Partly cloudy 10 - - - -
23/04:00pm 11.7 WNW 8 13 1011.6 - 1.8 - Partly cloudy 10 - - - -
23/03:30pm 11.2 WNW 7 11 1011.5 - 1.8 - Partly cloudy 10 - - - -
23/03:27pm 11.2 WNW 7 11 1011.4 - 1.8 - Partly cloudy 10 - - - -
23/03:08pm 11.1 W 11 18 1011.4 - 1.6 - Partly cloudy 5 - - - -
23/03:00pm 11.5 WSW 8 11 1011.2 - 0.4 Recent precip. Mostly cloudy 10 - - - -
23/02:30pm 11.4 WSW 8 13 1011.2 - 0.4 - Partly cloudy 8 - - - -
23/02:00pm 12.7 NNW 14 20 1010.3 - 0.0 - Partly cloudy 10 - - - -
23/01:30pm 13.3 N 15 21 1010.4 - 0.0 - Partly cloudy 10 - - - -
23/01:00pm 13.5 N 17 25 1010.7 - 0.0 - Partly cloudy 10 - - - -
23/12:30pm 13.2 NNW 15 21 1011.2 - 0.0 - Partly cloudy 10 - - - -
23/12:00pm 13.5 NNW 16 22 1011.6 - 0.0 - Cloudy 10 - - - -
23/11:30am 12.5 NNW 15 21 1012.0 - 0.0 - - 10 - - - -
23/11:00am 12.7 NNW 16 22 1012.2 - 0.0 - Partly cloudy 10 - - - -
23/10:30am 12.6 N 16 22 1012.5 - 0.0 - Partly cloudy 10 - - - -
23/10:00am 11.4 N 17 25 1012.5 - 0.0 - Partly cloudy 10 - - - -
23/09:30am 11.5 N 16 23 1012.4 - 0.0 - Partly cloudy 10 - - - -
23/09:00am 11.3 N 17 22 1012.2 - 0.0 - Cloudy 10 - - - -
23/08:30am 10.6 N 14 18 1012.3 - 0.0 - Partly cloudy 10 - - - -
23/08:12am 10.7 N 15 25 1012.0 - 0.0 - Partly cloudy 10 - - - -
23/08:00am 10.9 N 17 23 1011.6 - 0.0 - Partly cloudy 10 - - - -
23/07:30am 11.1 N 17 23 1011.6 - 0.0 - Cloudy 10 - - - -
23/07:00am 11.0 N 17 23 1011.3 - 0.0 - Partly cloudy 10 - - - -
23/06:30am 11.3 N 15 20 1011.3 - 0.0 - Cloudy 10 - - - -
23/06:00am 11.5 N 14 19 1011.2 - 0.0 - Cloudy 10 - - - -
23/05:30am 11.2 N 13 18 1010.8 - 0.0 - Partly cloudy 10 - - - -
23/05:00am 11.6 NNW 15 25 1010.8 - 0.0 - - 10 - - - -
23/04:52am 11.9 N 19 29 1010.4 - 0.0 - - 10 - - - -
23/04:30am 12.3 N 21 28 1010.3 - 0.0 - Partly cloudy 10 - - - -
23/04:00am 12.5 N 21 27 1010.5 - 0.0 - Partly cloudy 10 - - - -
23/03:30am 12.1 N 19 28 1010.5 - 0.0 - - 10 - - - -
23/03:11am 11.8 N 20 31 1010.4 - 0.0 - - 10 - - - -
23/03:00am 11.6 N 20 29 1010.7 - 0.0 - Cloudy 10 - - - -
23/02:30am 11.0 N 19 25 1011.3 - 0.0 - Partly cloudy 10 - - - -
23/02:00am 11.6 N 19 27 1011.5 - 0.0 - Partly cloudy 10 - - - -
23/01:46am 11.9 N 16 26 1011.7 - 0.0 - Cloudy 10 - - - -
23/01:30am 11.4 N 16 23 1012.0 - 0.0 - Cloudy 10 - - - -
23/01:00am 10.1 N 14 18 1012.5 - 0.0 - Partly cloudy 10 - - - -
23/12:30am 10.2 N 16 22 1012.8 - 0.0 - - 10 - - - -
23/12:00am 10.3 N 16 21 1013.1 - 0.0 - - 10 - - - -
 
Date/Time
EST
Temp
°C
Wind Pressure Rain since
9am
mm
Weather Cloud Vis
km
Sea
Height
m
Swell
Dir  Spd
kts
Gust
kts
hPa Trend Height
m
Period
s
Dir
22/11:30pm 10.0 N 17 22 1013.2 - 0.0 - - 10 - - - -
22/11:00pm 10.3 N 18 24 1013.3 - 0.0 - - 10 - - - -
22/10:30pm 10.4 N 20 25 1013.2 - 0.0 - - 10 - - - -
22/10:00pm 10.3 N 19 28 1013.3 - 0.0 - - 10 - - - -
22/09:30pm 10.5 N 19 25 1013.5 - 0.0 - - 10 - - - -
22/09:00pm 10.6 N 18 24 1013.6 - 0.0 - - 10 - - - -
22/08:30pm 10.9 N 21 28 1013.2 - 0.0 - - 10 - - - -
22/08:03pm 11.1 N 22 31 1013.6 - 0.0 - Partly cloudy 10 - - - -
22/08:00pm 11.1 N 22 31 1013.6 - 0.0 - Partly cloudy 10 - - - -
22/07:37pm 11.4 N 23 33 1013.5 - 0.0 - Partly cloudy 10 - - - -
22/07:30pm 11.5 N 24 31 1013.5 - 0.0 - Partly cloudy 10 - - - -
22/07:00pm 11.9 N 23 33 1013.5 - 0.0 - Cloudy 10 - - - -
22/06:41pm 12.2 N 21 32 1013.5 - 0.0 - Cloudy 10 - - - -
22/06:30pm 11.9 N 19 26 1013.4 - 0.0 - Partly cloudy 10 - - - -
22/06:00pm 12.1 N 14 19 1013.7 - 0.0 - Cloudy 10 - - - -
22/05:30pm 11.9 N 14 19 1013.8 - 0.0 - Cloudy 10 - - - -
22/05:00pm 12.2 N 17 28 1013.7 - 0.0 - Cloudy 10 - - - -
22/04:55pm 12.2 N 16 28 1013.7 - 0.0 - Cloudy 10 - - - -
22/04:30pm 11.8 N 14 23 1013.9 - 0.0 - Cloudy 10 - - - -
22/04:00pm 11.9 N 19 26 1013.4 - 0.0 - Partly cloudy 10 - - - -
22/03:30pm 11.9 N 20 27 1013.9 - 0.0 - Cloudy 10 - - - -
22/03:00pm 12.4 N 19 30 1014.2 - 0.0 - Mostly cloudy 10 - - - -
22/02:30pm 12.4 N 23 35 1014.2 - 0.0 - Cloudy 10 - - - -
22/02:07pm 12.4 N 19 29 1014.8 - 0.0 - Partly cloudy 10 - - - -
22/02:00pm 12.3 N 20 28 1015.1 - 0.0 - - 10 - - - -
22/01:46pm 12.4 N 19 29 1015.1 - 0.0 - - 10 - - - -
22/01:30pm 12.4 N 21 29 1015.4 - 0.0 - Partly cloudy 10 - - - -
22/01:15pm 11.9 N 22 32 1015.3 - 0.0 - Cloudy 10 - - - -
22/01:00pm 11.9 N 22 29 1015.8 - 0.0 - Cloudy 10 - - - -
22/12:37pm 11.8 N 21 28 1016.8 - 0.0 - Cloudy 10 - - - -
22/12:30pm 12.0 N 23 31 1016.9 - 0.0 - Cloudy 10 - - - -
22/12:00pm 11.8 N 25 35 1017.8 - 0.0 - Mostly cloudy 10 - - - -
22/11:56am 11.7 N 25 35 1017.8 - 0.0 - Cloudy 10 - - - -
22/11:30am 11.4 N 23 31 1018.5 - 0.0 - Cloudy 10 - - - -
22/11:00am 11.6 N 21 31 1019.1 - 0.0 - Partly cloudy 10 - - - -
22/10:30am 11.5 N 19 29 1019.7 - 0.0 - - 10 - - - -
22/10:05am 10.5 N 16 27 1020.0 - 0.0 - - 10 - - - -
22/10:00am 10.6 N 15 22 1020.1 - 0.0 - - 10 - - - -
22/09:30am 10.0 N 16 21 1019.6 - 0.0 - - 10 - - - -
22/09:00am 9.0 N 14 17 1019.9 - 0.0 - Mostly cloudy 10 - - - -
22/08:30am 7.9 N 11 13 1020.3 - 0.0 - - 10 - - - -
22/08:00am 7.1 N 12 15 1020.1 - 0.0 - Partly cloudy 10 - - - -
22/07:30am 6.9 N 11 14 1020.4 - 0.0 - Partly cloudy 10 - - - -
22/07:00am 6.6 N 11 14 1019.9 - 0.0 - - 10 - - - -
22/06:30am 6.8 N 10 12 1019.7 - 0.0 - - 10 - - - -
22/06:00am 6.4 N 10 13 1019.6 - 0.0 - Partly cloudy 10 - - - -
22/05:30am 6.4 N 11 14 1019.4 - 0.0 - - 10 - - - -

Other Formats:

Comma delimited format used in spreadsheet applications
http://www.bom.gov.au/fwo/IDV60701/IDV60701.94870.axf

JavaScript Object Notation format (JSON) in row-major order
http://www.bom.gov.au/fwo/IDV60701/IDV60701.94870.json